createdAt,value
2023-01-21T00:00:23.421Z,-3.00
2023-01-21T00:02:50.135Z,-3.00
2023-01-21T00:05:16.862Z,-3.10
2023-01-21T00:07:43.525Z,-3.10
2023-01-21T00:10:10.437Z,-3.00
2023-01-21T00:12:38.544Z,-3.10
2023-01-21T00:15:05.684Z,-3.10
2023-01-21T00:17:35.793Z,-3.10
2023-01-21T00:20:04.662Z,-3.10
2023-01-21T00:22:31.924Z,-3.10
2023-01-21T00:24:58.630Z,-3.00
2023-01-21T00:27:25.374Z,-3.20
2023-01-21T00:29:52.222Z,-3.20
2023-01-21T00:32:19.678Z,-3.30
2023-01-21T00:34:46.635Z,-3.40
2023-01-21T00:37:13.403Z,-3.40
2023-01-21T00:39:42.801Z,-3.30
2023-01-21T00:42:11.215Z,-3.20
2023-01-21T00:44:41.056Z,-3.20
2023-01-21T00:47:07.808Z,-3.20
2023-01-21T00:49:34.539Z,-3.20
2023-01-21T00:52:01.741Z,-3.20
2023-01-21T00:54:28.471Z,-3.20
2023-01-21T00:56:55.512Z,-3.20
2023-01-21T00:59:22.375Z,-3.10
2023-01-21T01:01:49.187Z,-3.20
2023-01-21T01:04:15.897Z,-3.20
2023-01-21T01:06:42.714Z,-3.20
2023-01-21T01:09:09.717Z,-3.20
2023-01-21T01:11:36.421Z,-3.20
2023-01-21T01:14:03.169Z,-3.20
2023-01-21T01:16:30.293Z,-3.10
2023-01-21T01:18:57.475Z,-3.10
2023-01-21T01:21:24.286Z,-3.20
2023-01-21T01:23:52.327Z,-3.20
2023-01-21T01:26:20.219Z,-3.30
2023-01-21T01:28:47.329Z,-3.40
2023-01-21T01:31:17.277Z,-3.40
2023-01-21T01:33:44.088Z,-3.50
2023-01-21T01:36:14.282Z,-3.50
2023-01-21T01:38:41.419Z,-3.60
2023-01-21T01:41:08.900Z,-3.60
2023-01-21T01:44:01.353Z,-3.60
2023-01-21T01:46:35.912Z,-3.60
2023-01-21T01:49:31.727Z,-3.60
2023-01-21T01:52:02.825Z,-3.70
2023-01-21T01:54:38.420Z,-3.70
2023-01-21T01:57:08.734Z,-3.60
2023-01-21T01:59:35.667Z,-3.60
2023-01-21T02:02:08.247Z,-3.60
2023-01-21T02:04:42.509Z,-3.60
2023-01-21T02:07:09.250Z,-3.70
2023-01-21T02:09:36.203Z,-3.60
2023-01-21T02:12:04.993Z,-3.70
2023-01-21T02:14:34.124Z,-3.70
2023-01-21T02:17:06.224Z,-3.70
2023-01-21T02:20:09.778Z,-3.60
2023-01-21T02:22:45.419Z,-3.50
2023-01-21T02:25:35.328Z,-3.40
2023-01-21T02:28:36.208Z,-3.20
2023-01-21T02:31:02.919Z,-3.20
2023-01-21T02:34:07.618Z,-3.10
2023-01-21T02:36:55.900Z,-3.00
2023-01-21T02:39:56.603Z,-3.00
2023-01-21T02:42:39.341Z,-2.80
2023-01-21T02:45:26.978Z,-2.80
2023-01-21T02:48:07.382Z,-2.80
2023-01-21T02:50:40.131Z,-2.90
2023-01-21T02:53:06.850Z,-2.90
2023-01-21T02:55:37.907Z,-2.90
2023-01-21T02:58:11.911Z,-2.90
2023-01-21T03:01:04.473Z,-3.00
2023-01-21T03:03:50.091Z,-2.90
2023-01-21T03:06:26.694Z,-2.90
2023-01-21T03:08:57.683Z,-2.90
2023-01-21T03:11:25.254Z,-2.70
2023-01-21T03:14:32.942Z,-2.70
2023-01-21T03:17:14.450Z,-2.70
2023-01-21T03:20:10.705Z,-2.70
2023-01-21T03:22:39.125Z,-2.60
2023-01-21T03:25:08.544Z,-2.60
2023-01-21T03:27:39.530Z,-2.50
2023-01-21T03:30:13.015Z,-2.40
2023-01-21T03:32:41.271Z,-2.30
2023-01-21T03:35:10.056Z,-2.30
2023-01-21T03:37:54.687Z,-2.20
2023-01-21T03:40:30.063Z,-2.20
2023-01-21T03:42:57.309Z,-2.10
2023-01-21T03:45:59.253Z,-2.10
2023-01-21T03:48:41.295Z,-2.10
2023-01-21T03:51:13.474Z,-2.10
2023-01-21T03:53:40.299Z,-2.20
2023-01-21T03:56:07.245Z,-2.10
2023-01-21T03:58:33.985Z,-2.20
2023-01-21T04:01:00.759Z,-2.10
2023-01-21T04:03:27.485Z,-2.10
2023-01-21T04:05:54.268Z,-2.10
2023-01-21T04:08:20.939Z,-2.10
2023-01-21T04:10:47.667Z,-2.10
2023-01-21T04:13:14.419Z,-2.10
2023-01-21T04:15:41.106Z,-2.10
2023-01-21T04:18:07.794Z,-2.10
2023-01-21T04:20:34.515Z,-2.10
2023-01-21T04:23:01.244Z,-2.10
2023-01-21T04:25:27.975Z,-2.10
2023-01-21T04:27:54.632Z,-2.10
2023-01-21T04:30:21.318Z,-2.00
2023-01-21T04:32:48.143Z,-2.00
2023-01-21T04:35:14.933Z,-2.00
2023-01-21T04:37:41.594Z,-1.90
2023-01-21T04:40:09.026Z,-1.90
2023-01-21T04:42:35.707Z,-1.80
2023-01-21T04:45:02.456Z,-1.80
2023-01-21T04:47:29.112Z,-1.80
2023-01-21T04:49:55.807Z,-1.70
2023-01-21T04:52:22.562Z,-1.50
2023-01-21T04:54:49.249Z,-1.50
2023-01-21T04:57:15.931Z,-1.60
2023-01-21T04:59:42.885Z,-1.60
2023-01-21T05:02:09.618Z,-1.70
2023-01-21T05:04:36.356Z,-1.50
2023-01-21T05:07:03.255Z,-1.50
2023-01-21T05:09:30.014Z,-1.60
2023-01-21T05:11:56.721Z,-1.40
2023-01-21T05:14:23.618Z,-1.30
2023-01-21T05:16:50.421Z,-1.40
2023-01-21T05:19:17.150Z,-1.40
2023-01-21T05:21:44.051Z,-1.40
2023-01-21T05:24:10.821Z,-1.40
2023-01-21T05:26:37.514Z,-1.40
2023-01-21T05:29:04.278Z,-1.30
2023-01-21T05:31:31.075Z,-1.10
2023-01-21T05:33:58.208Z,-1.30
2023-01-21T05:36:25.018Z,-1.10
2023-01-21T05:38:51.720Z,-1.10
2023-01-21T05:41:18.480Z,-1.20
2023-01-21T05:43:45.299Z,-1.10
2023-01-21T05:46:12.244Z,-1.10
2023-01-21T05:48:38.944Z,-1.30
2023-01-21T05:51:05.965Z,-1.30
2023-01-21T05:53:32.697Z,-1.30
2023-01-21T05:55:59.447Z,-1.20
2023-01-21T05:58:26.435Z,-1.10
2023-01-21T06:00:53.952Z,-1.10
2023-01-21T06:03:20.712Z,-1.10
2023-01-21T06:05:49.459Z,-1.30
2023-01-21T06:08:16.928Z,-1.20
2023-01-21T06:10:44.005Z,-1.20
2023-01-21T06:13:15.225Z,-1.10
2023-01-21T06:15:42.914Z,-1.10
2023-01-21T06:18:09.698Z,-1.10
2023-01-21T06:20:36.900Z,-1.10
2023-01-21T06:23:03.956Z,-0.90
2023-01-21T06:25:31.124Z,-1.00
2023-01-21T06:27:59.019Z,-1.10
2023-01-21T06:30:26.102Z,-0.90
2023-01-21T06:32:52.924Z,-1.00
2023-01-21T06:35:20.027Z,-1.00
2023-01-21T06:37:47.136Z,-1.10
2023-01-21T06:40:14.782Z,-1.10
2023-01-21T06:42:41.714Z,-1.00
2023-01-21T06:45:09.028Z,-1.00
2023-01-21T06:47:35.793Z,-1.00
2023-01-21T06:50:02.527Z,-1.00
2023-01-21T06:52:29.339Z,-0.90
2023-01-21T06:54:56.033Z,-0.80
2023-01-21T06:57:22.853Z,-0.70
2023-01-21T06:59:49.596Z,-0.60
2023-01-21T07:02:16.298Z,-0.50
2023-01-21T07:04:43.080Z,-0.50
2023-01-21T07:07:09.790Z,-0.40
2023-01-21T07:09:36.499Z,-0.40
2023-01-21T07:12:03.282Z,-0.40
2023-01-21T07:14:29.985Z,-0.40
2023-01-21T07:16:56.835Z,-0.40
2023-01-21T07:19:23.610Z,-0.40
2023-01-21T07:21:50.581Z,-0.30
2023-01-21T07:24:17.250Z,-0.40
2023-01-21T07:26:43.975Z,-0.30
2023-01-21T07:29:10.739Z,-0.20
2023-01-21T07:31:37.611Z,-0.10
2023-01-21T07:34:04.845Z,-0.20
2023-01-21T07:36:32.023Z,-0.20
2023-01-21T07:38:58.785Z,-0.20
2023-01-21T07:41:25.508Z,-0.20
2023-01-21T07:43:52.266Z,-0.20
2023-01-21T07:46:20.997Z,-0.20
2023-01-21T07:48:49.187Z,-0.20
2023-01-21T07:51:15.909Z,-0.10
2023-01-21T07:53:42.909Z,0.00
2023-01-21T07:56:10.224Z,-0.10
2023-01-21T07:58:37.843Z,-0.10
2023-01-21T08:01:07.987Z,-0.10
2023-01-21T08:03:35.896Z,-0.10
2023-01-21T08:06:02.858Z,-0.10
2023-01-21T08:08:29.673Z,-0.10
2023-01-21T08:10:56.464Z,0.00
2023-01-21T08:13:23.816Z,0.00
2023-01-21T08:15:52.328Z,0.00
2023-01-21T08:18:20.244Z,0.00
2023-01-21T08:20:46.940Z,0.00
2023-01-21T08:23:14.293Z,0.00
2023-01-21T08:25:41.746Z,0.00
2023-01-21T08:28:08.449Z,0.00
2023-01-21T08:30:35.867Z,0.10
2023-01-21T08:33:03.826Z,0.30
2023-01-21T08:35:31.588Z,0.20
2023-01-21T08:37:58.383Z,0.00
2023-01-21T08:40:26.747Z,0.00
2023-01-21T08:43:02.466Z,0.00
2023-01-21T08:45:30.355Z,0.00
2023-01-21T08:47:57.245Z,0.00
2023-01-21T08:50:24.368Z,0.00
2023-01-21T08:52:55.496Z,0.00
2023-01-21T08:55:26.610Z,0.00
2023-01-21T08:57:58.331Z,0.00
2023-01-21T09:00:25.591Z,0.00
2023-01-21T09:02:52.328Z,0.00
2023-01-21T09:05:20.156Z,0.00
2023-01-21T09:07:47.014Z,0.00
2023-01-21T09:10:34.103Z,0.20
2023-01-21T09:13:04.983Z,0.00
2023-01-21T09:15:31.699Z,0.00
2023-01-21T09:17:58.400Z,0.10
2023-01-21T09:20:25.103Z,0.10
2023-01-21T09:22:52.016Z,0.10
2023-01-21T09:25:20.507Z,0.00
2023-01-21T09:27:48.967Z,0.10
2023-01-21T09:30:16.319Z,0.00
2023-01-21T09:32:43.051Z,0.00
2023-01-21T09:35:09.840Z,0.10
2023-01-21T09:37:37.179Z,0.20
2023-01-21T09:40:04.137Z,0.20
2023-01-21T09:42:33.215Z,0.20
2023-01-21T09:45:02.764Z,0.20
2023-01-21T09:47:38.515Z,0.10
2023-01-21T09:50:18.942Z,0.00
2023-01-21T09:52:52.138Z,0.00
2023-01-21T09:55:33.577Z,0.20
2023-01-21T09:58:09.530Z,0.20
2023-01-21T10:01:02.751Z,0.30
2023-01-21T10:03:34.578Z,0.20
2023-01-21T10:06:35.262Z,0.30
2023-01-21T10:09:26.567Z,0.30
2023-01-21T10:12:11.325Z,0.20
2023-01-21T10:15:21.769Z,0.30
2023-01-21T10:18:03.321Z,0.30
2023-01-21T10:20:32.827Z,0.30
2023-01-21T10:23:11.620Z,0.40
2023-01-21T10:25:39.535Z,0.50
2023-01-21T10:28:19.328Z,0.60
2023-01-21T10:30:51.429Z,0.60
2023-01-21T10:33:31.008Z,0.60
2023-01-21T10:36:38.841Z,0.80
2023-01-21T10:39:33.416Z,1.00
2023-01-21T10:42:37.669Z,1.30
2023-01-21T10:45:34.285Z,1.20
2023-01-21T10:48:09.055Z,1.30
2023-01-21T10:50:57.087Z,1.20
2023-01-21T10:53:33.600Z,1.10
2023-01-21T10:56:22.136Z,1.10
2023-01-21T10:58:54.895Z,1.40
2023-01-21T11:01:31.056Z,1.40
2023-01-21T11:04:03.688Z,1.40
2023-01-21T11:06:32.970Z,1.40
2023-01-21T11:09:03.361Z,1.40
2023-01-21T11:11:32.853Z,1.40
2023-01-21T11:14:00.227Z,1.50
2023-01-21T11:16:39.189Z,1.50
2023-01-21T11:19:07.992Z,1.40
2023-01-21T11:21:34.910Z,1.40
2023-01-21T11:24:22.437Z,1.50
2023-01-21T11:26:53.347Z,1.70
2023-01-21T11:29:21.821Z,1.50
2023-01-21T11:31:52.543Z,1.60
2023-01-21T11:34:21.466Z,1.40
2023-01-21T11:37:00.092Z,1.40
2023-01-21T11:39:29.915Z,1.40
2023-01-21T11:41:58.990Z,1.50
2023-01-21T11:44:25.886Z,1.60
2023-01-21T11:46:52.823Z,1.80
2023-01-21T11:49:46.618Z,1.80
2023-01-21T11:52:19.109Z,1.70
2023-01-21T11:54:47.177Z,1.50
2023-01-21T11:57:25.628Z,1.60
2023-01-21T11:59:55.940Z,1.70
2023-01-21T12:02:33.398Z,1.40
2023-01-21T12:05:06.960Z,1.60
2023-01-21T12:07:38.160Z,1.60
2023-01-21T12:10:13.607Z,1.50
2023-01-21T12:13:20.202Z,1.40
2023-01-21T12:16:15.079Z,1.60
2023-01-21T12:18:47.824Z,1.60
2023-01-21T12:21:49.776Z,1.50
2023-01-21T12:25:03.578Z,1.40
2023-01-21T12:27:33.167Z,1.40
2023-01-21T12:30:17.512Z,1.50
2023-01-21T12:32:57.168Z,1.50
2023-01-21T12:35:39.185Z,1.60
2023-01-21T12:38:13.242Z,1.60
2023-01-21T12:40:47.917Z,1.50
2023-01-21T12:43:35.877Z,1.40
2023-01-21T12:46:14.283Z,1.70
2023-01-21T12:48:52.062Z,1.70
2023-01-21T12:51:31.761Z,1.80
2023-01-21T12:54:13.707Z,1.70
2023-01-21T12:57:20.364Z,1.70
2023-01-21T12:59:49.069Z,1.50
2023-01-21T13:02:33.075Z,1.50
2023-01-21T13:05:36.296Z,1.50
2023-01-21T13:08:27.079Z,1.60
2023-01-21T13:11:01.189Z,1.70
2023-01-21T13:13:32.136Z,1.90
2023-01-21T13:16:05.031Z,1.90
2023-01-21T13:18:37.815Z,1.90
2023-01-21T13:21:48.747Z,1.90
2023-01-21T13:24:18.281Z,1.90
2023-01-21T13:27:06.109Z,1.90
2023-01-21T13:29:50.702Z,1.90
2023-01-21T13:32:26.399Z,1.90
2023-01-21T13:35:19.710Z,1.80
2023-01-21T13:37:57.368Z,1.80
2023-01-21T13:40:43.786Z,1.80
2023-01-21T13:43:40.737Z,1.80
2023-01-21T13:46:22.532Z,1.80
2023-01-21T13:49:35.968Z,1.80
2023-01-21T13:52:20.165Z,1.80
2023-01-21T13:55:08.096Z,1.80
2023-01-21T13:57:46.845Z,1.80
2023-01-21T14:00:29.811Z,1.80
2023-01-21T14:03:08.559Z,1.70
2023-01-21T14:05:54.242Z,1.70
2023-01-21T14:08:33.651Z,1.80
2023-01-21T14:11:15.712Z,1.70
2023-01-21T14:14:00.894Z,1.70
2023-01-21T14:16:38.356Z,1.70
2023-01-21T14:19:16.914Z,1.60
2023-01-21T14:21:55.767Z,1.70
2023-01-21T14:24:32.969Z,1.60
2023-01-21T14:27:20.596Z,1.50
2023-01-21T14:29:55.944Z,1.60
2023-01-21T14:32:29.674Z,1.60
2023-01-21T14:35:34.054Z,1.60
2023-01-21T14:38:26.268Z,1.60
2023-01-21T14:41:06.237Z,1.60
2023-01-21T14:43:32.913Z,1.60
2023-01-21T14:46:00.962Z,1.50
2023-01-21T14:48:31.895Z,1.50
2023-01-21T14:51:07.822Z,1.50
2023-01-21T14:53:47.990Z,1.50
2023-01-21T14:56:27.661Z,1.50
2023-01-21T14:59:06.449Z,1.60
2023-01-21T15:01:41.304Z,1.50
2023-01-21T15:04:25.603Z,1.40
2023-01-21T15:06:59.106Z,1.40
2023-01-21T15:09:31.802Z,1.40
2023-01-21T15:12:16.304Z,1.40
2023-01-21T15:14:45.524Z,1.40
2023-01-21T15:17:44.066Z,1.40
2023-01-21T15:20:44.091Z,1.30
2023-01-21T15:23:29.635Z,1.40
2023-01-21T15:26:17.676Z,1.20
2023-01-21T15:28:59.595Z,1.20
2023-01-21T15:31:26.358Z,1.20
2023-01-21T15:33:59.333Z,1.20
2023-01-21T15:36:42.363Z,1.20
2023-01-21T15:39:17.694Z,1.10
2023-01-21T15:42:14.048Z,1.10
2023-01-21T15:45:05.159Z,1.10
2023-01-21T15:48:10.478Z,1.00
2023-01-21T15:50:50.825Z,1.00
2023-01-21T15:53:49.745Z,1.10
2023-01-21T15:56:28.259Z,1.00
2023-01-21T15:59:07.737Z,1.00
2023-01-21T16:01:40.017Z,1.00
2023-01-21T16:04:26.903Z,1.00
2023-01-21T16:07:14.662Z,1.00
2023-01-21T16:10:04.912Z,1.00
2023-01-21T16:12:55.849Z,1.00
2023-01-21T16:15:48.748Z,1.10
2023-01-21T16:18:28.180Z,1.10
2023-01-21T16:20:56.270Z,1.20
2023-01-21T16:23:27.345Z,1.10
2023-01-21T16:25:54.502Z,1.20
2023-01-21T16:28:21.603Z,1.30
2023-01-21T16:30:57.250Z,1.10
2023-01-21T16:33:24.804Z,1.20
2023-01-21T16:35:57.785Z,1.20
2023-01-21T16:38:30.041Z,1.30
2023-01-21T16:41:12.298Z,1.10
2023-01-21T16:43:47.153Z,1.30
2023-01-21T16:46:16.787Z,1.40
2023-01-21T16:48:48.658Z,1.40
2023-01-21T16:51:20.270Z,1.30
2023-01-21T16:53:47.291Z,1.40
2023-01-21T16:56:26.340Z,1.50
2023-01-21T16:58:53.067Z,1.50
2023-01-21T17:01:21.035Z,1.50
2023-01-21T17:03:47.972Z,1.50
2023-01-21T17:06:26.988Z,1.50
2023-01-21T17:09:08.939Z,1.60
2023-01-21T17:11:38.945Z,1.50
2023-01-21T17:14:10.398Z,1.50
2023-01-21T17:16:40.633Z,1.40
2023-01-21T17:19:23.876Z,1.50
2023-01-21T17:21:55.540Z,1.50
2023-01-21T17:24:27.078Z,1.60
2023-01-21T17:27:07.690Z,1.50
2023-01-21T17:29:35.158Z,1.50
2023-01-21T17:32:05.387Z,1.60
2023-01-21T17:34:34.779Z,1.60
2023-01-21T17:37:02.305Z,1.60
2023-01-21T17:39:48.124Z,1.60
2023-01-21T17:42:21.382Z,1.60
2023-01-21T17:44:57.543Z,1.60
2023-01-21T17:47:32.140Z,1.60
2023-01-21T17:50:28.684Z,1.60
2023-01-21T17:53:03.304Z,1.60
2023-01-21T17:55:40.458Z,1.50
2023-01-21T17:58:44.805Z,1.60
2023-01-21T18:01:12.016Z,1.50
2023-01-21T18:03:39.005Z,1.50
2023-01-21T18:06:10.903Z,1.60
2023-01-21T18:08:37.670Z,1.50
2023-01-21T18:11:04.546Z,1.50
2023-01-21T18:13:31.262Z,1.40
2023-01-21T18:15:58.374Z,1.40
2023-01-21T18:18:29.710Z,1.50
2023-01-21T18:20:56.499Z,1.50
2023-01-21T18:23:23.453Z,1.60
2023-01-21T18:25:54.635Z,1.60
2023-01-21T18:28:24.016Z,1.50
2023-01-21T18:30:53.261Z,1.50
2023-01-21T18:33:20.321Z,1.50
2023-01-21T18:35:48.615Z,1.50
2023-01-21T18:38:27.220Z,1.60
2023-01-21T18:40:57.873Z,1.60
2023-01-21T18:43:27.377Z,1.60
2023-01-21T18:45:54.752Z,1.60
2023-01-21T18:48:27.494Z,1.60
2023-01-21T18:50:54.429Z,1.60
2023-01-21T18:53:21.184Z,1.60
2023-01-21T18:55:51.471Z,1.60
2023-01-21T18:58:18.143Z,1.60
2023-01-21T19:00:44.938Z,1.60
2023-01-21T19:03:15.159Z,1.60
2023-01-21T19:05:44.475Z,1.50
2023-01-21T19:08:14.929Z,1.60
2023-01-21T19:10:41.644Z,1.50
2023-01-21T19:13:09.943Z,1.60
2023-01-21T19:15:37.159Z,1.60
2023-01-21T19:18:10.893Z,1.40
2023-01-21T19:20:41.583Z,1.40
2023-01-21T19:23:15.639Z,1.50
2023-01-21T19:26:04.619Z,1.50
2023-01-21T19:28:32.065Z,1.40
2023-01-21T19:30:58.871Z,1.60
2023-01-21T19:33:26.105Z,1.60
2023-01-21T19:36:00.189Z,1.50
2023-01-21T19:38:27.187Z,1.60
2023-01-21T19:40:55.190Z,1.60
2023-01-21T19:43:22.841Z,1.50
2023-01-21T19:45:51.250Z,1.50
2023-01-21T19:48:20.779Z,1.60
2023-01-21T19:50:47.688Z,1.70
2023-01-21T19:53:16.844Z,1.70
2023-01-21T19:55:45.536Z,1.50
2023-01-21T19:58:19.582Z,1.60
2023-01-21T20:00:49.422Z,1.70
2023-01-21T20:03:17.953Z,1.60
2023-01-21T20:05:45.629Z,1.50
2023-01-21T20:08:17.574Z,1.50
2023-01-21T20:10:44.746Z,1.60
2023-01-21T20:13:13.606Z,1.50
2023-01-21T20:15:42.713Z,1.40
2023-01-21T20:18:27.890Z,1.50
2023-01-21T20:20:54.869Z,1.60
2023-01-21T20:23:23.197Z,1.40
2023-01-21T20:25:54.860Z,1.50
2023-01-21T20:28:33.833Z,1.40
2023-01-21T20:31:03.436Z,1.40
2023-01-21T20:33:30.152Z,1.40
2023-01-21T20:35:57.006Z,1.40
2023-01-21T20:38:37.647Z,1.40
2023-01-21T20:41:05.350Z,1.40
2023-01-21T20:43:32.344Z,1.40
2023-01-21T20:46:02.559Z,1.20
2023-01-21T20:48:33.641Z,1.10
2023-01-21T20:51:00.788Z,1.10
2023-01-21T20:53:28.180Z,1.20
2023-01-21T20:55:57.741Z,1.30
2023-01-21T20:58:25.894Z,1.40
2023-01-21T21:00:52.683Z,1.40
2023-01-21T21:03:19.771Z,1.20
2023-01-21T21:05:47.693Z,1.00
2023-01-21T21:08:19.971Z,1.10
2023-01-21T21:10:47.351Z,1.10
2023-01-21T21:13:14.511Z,1.10
2023-01-21T21:15:42.093Z,1.20
2023-01-21T21:18:13.068Z,1.30
2023-01-21T21:20:40.258Z,1.40
2023-01-21T21:23:07.994Z,1.20
2023-01-21T21:25:40.426Z,1.20
2023-01-21T21:28:07.188Z,1.20
2023-01-21T21:30:34.466Z,1.10
2023-01-21T21:33:01.779Z,1.20
2023-01-21T21:35:37.198Z,1.10
2023-01-21T21:38:07.058Z,1.00
2023-01-21T21:40:37.024Z,1.00
2023-01-21T21:43:22.617Z,1.10
2023-01-21T21:46:07.996Z,1.10
2023-01-21T21:48:45.999Z,1.00
2023-01-21T21:51:15.189Z,1.00
2023-01-21T21:53:42.012Z,1.00
2023-01-21T21:56:13.953Z,1.00
2023-01-21T21:58:41.043Z,0.90
2023-01-21T22:01:10.556Z,1.00
2023-01-21T22:03:37.840Z,1.00
2023-01-21T22:06:05.409Z,1.10
2023-01-21T22:08:33.648Z,1.20
2023-01-21T22:11:01.825Z,1.00
2023-01-21T22:13:29.475Z,0.90
2023-01-21T22:15:57.543Z,1.00
2023-01-21T22:18:28.976Z,1.00
2023-01-21T22:21:05.147Z,1.10
2023-01-21T22:23:33.844Z,1.20
2023-01-21T22:26:06.681Z,1.10
2023-01-21T22:28:35.385Z,1.00
2023-01-21T22:31:10.545Z,1.00
2023-01-21T22:33:37.859Z,0.60
2023-01-21T22:36:05.961Z,0.60
2023-01-21T22:38:34.407Z,0.80
2023-01-21T22:41:01.630Z,0.60
2023-01-21T22:43:29.538Z,0.40
2023-01-21T22:45:57.427Z,0.50
2023-01-21T22:48:25.221Z,0.40
2023-01-21T22:50:53.967Z,0.40
2023-01-21T22:53:21.468Z,0.40
2023-01-21T22:55:56.636Z,0.30
2023-01-21T22:58:24.222Z,0.30
2023-01-21T23:00:52.419Z,0.30
2023-01-21T23:03:19.629Z,0.30
2023-01-21T23:05:46.557Z,0.30
2023-01-21T23:08:14.354Z,0.20
2023-01-21T23:10:42.474Z,0.30
2023-01-21T23:13:13.476Z,0.30
2023-01-21T23:15:45.687Z,0.30
2023-01-21T23:18:14.475Z,0.30
2023-01-21T23:20:42.330Z,0.10
2023-01-21T23:23:11.226Z,0.10
2023-01-21T23:25:45.737Z,0.10
2023-01-21T23:28:13.923Z,0.00
2023-01-21T23:30:41.504Z,0.10
2023-01-21T23:33:08.610Z,0.20
2023-01-21T23:35:35.677Z,0.00
2023-01-21T23:38:03.283Z,0.00
2023-01-21T23:40:30.177Z,0.10
2023-01-21T23:42:56.962Z,0.20
2023-01-21T23:45:23.669Z,0.00
2023-01-21T23:47:50.423Z,0.20
2023-01-21T23:50:17.445Z,0.20
2023-01-21T23:52:44.336Z,0.20
2023-01-21T23:55:11.600Z,0.20
2023-01-21T23:57:38.337Z,0.20
